Time;durP1;ratioP1;P1;durP2;ratioP2;P2;SDS_P1;SDS_P2;PMS_P1;PMS_P2;Temp;Humidity;BMP_temperature;BMP_pressure;BME280_temperature;BME280_humidity;BME280_pressure;Samples;Min_cycle;Max_cycle;Signal;HPM_P1;HPM_P2
2023/01/12 00:00:56;;;;;;;3.40;2.42;;;;;;;3.35;82.17;101872.50;5009819;28;20060;-86
2023/01/12 00:03:22;;;;;;;4.50;2.45;;;;;;;3.63;81.97;101910.84;5010049;28;20026;-84
2023/01/12 00:05:47;;;;;;;2.28;1.73;;;;;;;3.77;82.30;101932.22;5009684;28;20038;-84
2023/01/12 00:08:13;;;;;;;1.42;1.13;;;;;;;3.82;82.03;101934.75;5011087;28;20030;-84
2023/01/12 00:10:38;;;;;;;2.80;1.50;;;;;;;3.79;81.78;101927.09;4992918;28;20100;-84
2023/01/12 00:13:04;;;;;;;1.30;1.20;;;;;;;3.56;81.22;101912.59;5010018;28;20403;-84
2023/01/12 00:18:13;;;;;;;3.70;0.80;;;;;;;3.59;81.92;101909.16;4995856;28;20040;-83
2023/01/12 00:20:39;;;;;;;0.98;0.85;;;;;;;3.61;82.72;101920.25;5010879;28;20436;-84
2023/01/12 00:23:05;;;;;;;3.58;1.05;;;;;;;3.65;82.40;101919.41;5009653;28;20409;-83
2023/01/12 00:25:31;;;;;;;2.00;1.65;;;;;;;3.58;82.14;101904.91;4993242;28;20495;-83
2023/01/12 00:27:56;;;;;;;2.03;1.35;;;;;;;3.68;82.44;101930.50;5009710;28;20515;-84
2023/01/12 00:30:23;;;;;;;3.15;2.13;;;;;;;3.50;81.68;101907.44;5009383;28;20052;-84
2023/01/12 00:32:48;;;;;;;5.63;1.70;;;;;;;3.64;82.24;101939.03;5009639;28;20101;-83
2023/01/12 00:35:16;;;;;;;1.85;1.30;;;;;;;3.54;81.82;101921.97;5009443;28;20065;-84
2023/01/12 00:37:41;;;;;;;0.95;0.90;;;;;;;3.65;81.38;101930.50;5009702;28;20037;-84
2023/01/12 00:40:08;;;;;;;1.88;1.10;;;;;;;3.58;81.48;101928.78;5009504;28;20030;-85
2023/01/12 00:45:21;;;;;;;1.10;0.77;;;;;;;3.32;83.02;101908.28;5010285;28;20471;-83
2023/01/12 00:47:46;;;;;;;0.93;0.80;;;;;;;3.41;82.63;101925.34;4993332;28;20423;-84
2023/01/12 00:50:12;;;;;;;1.40;1.27;;;;;;;3.39;82.16;101917.69;5009232;28;20046;-84
2023/01/12 00:52:37;;;;;;;1.25;1.02;;;;;;;3.31;82.61;101910.84;5009450;28;20041;-83
2023/01/12 00:55:03;;;;;;;3.50;1.10;;;;;;;3.32;82.01;101915.94;5009773;28;20038;-83
2023/01/12 00:57:28;;;;;;;1.33;1.02;;;;;;;3.42;82.17;101934.72;5009437;28;20034;-84
2023/01/12 00:59:56;;;;;;;1.38;0.95;;;;;;;3.29;81.65;101899.75;5010405;28;20053;-84
2023/01/12 01:02:22;;;;;;;2.05;1.70;;;;;;;3.44;81.43;101920.22;5010302;28;20493;-84
2023/01/12 01:04:48;;;;;;;3.75;1.58;;;;;;;3.44;82.01;101928.78;5009451;28;20029;-84
2023/01/12 01:07:14;;;;;;;1.80;1.45;;;;;;;3.41;82.26;101922.78;5009275;28;20022;-84
2023/01/12 01:09:40;;;;;;;1.25;1.02;;;;;;;3.52;81.42;101927.91;4993502;28;20034;-84
2023/01/12 01:12:06;;;;;;;1.10;1.00;;;;;;;3.40;82.05;101916.81;4993336;28;20069;-83
2023/01/12 01:14:31;;;;;;;2.38;1.88;;;;;;;3.36;82.47;101911.72;5008745;28;20026;-84
2023/01/12 01:16:57;;;;;;;2.38;1.65;;;;;;;3.43;82.95;101929.59;4993306;28;20394;-83
2023/01/12 01:19:23;;;;;;;2.55;1.67;;;;;;;3.41;82.90;101921.09;5009057;28;20037;-86
2023/01/12 01:21:48;;;;;;;2.15;1.45;;;;;;;3.41;82.95;101917.66;4994006;28;20488;-84
2023/01/12 01:24:14;;;;;;;2.17;1.77;;;;;;;3.39;83.07;101927.91;4996541;28;20034;-83
2023/01/12 01:26:40;;;;;;;2.20;1.65;;;;;;;3.45;83.06;101937.31;4996483;28;20034;-84
2023/01/12 01:29:05;;;;;;;3.15;2.15;;;;;;;3.41;82.77;101933.88;4995990;28;20033;-83
2023/01/12 01:31:31;;;;;;;1.70;1.42;;;;;;;3.19;83.27;101915.94;4996118;28;20103;-84
2023/01/12 01:33:56;;;;;;;3.35;1.80;;;;;;;2.98;82.57;101871.59;5012702;28;20515;-83
2023/01/12 01:36:22;;;;;;;3.17;1.48;;;;;;;3.17;83.13;101901.44;5012547;28;20037;-83
2023/01/12 01:38:47;;;;;;;3.30;2.05;;;;;;;3.31;83.03;101921.06;5012435;28;20428;-83
2023/01/12 01:41:17;;;;;;;2.10;1.65;;;;;;;3.29;83.02;101926.19;4996395;28;20053;-84
2023/01/12 01:43:51;;;;;;;1.85;1.35;;;;;;;3.37;83.04;101936.44;5012696;28;20057;-84
2023/01/12 01:46:24;;;;;;;1.50;0.55;;;;;;;3.32;82.45;101930.44;5013667;28;20057;-84
2023/01/12 01:48:49;;;;;;;1.58;1.48;;;;;;;3.28;82.48;101919.38;4996739;28;20563;-83
2023/01/12 01:51:15;;;;;;;5.15;1.27;;;;;;;3.17;82.93;101906.56;4995748;28;20042;-84
2023/01/12 01:53:42;;;;;;;1.48;1.35;;;;;;;3.27;82.50;101927.03;4996003;28;20034;-83
2023/01/12 01:56:19;;;;;;;2.45;2.20;;;;;;;3.30;83.24;101944.94;4996070;28;20030;-84
2023/01/12 01:59:15;;;;;;;2.08;1.83;;;;;;;3.28;82.92;101944.09;4996113;28;20116;-83
2023/01/12 02:01:40;;;;;;;1.73;1.20;;;;;;;3.22;82.18;101929.56;5010498;28;20069;-84
2023/01/12 02:04:06;;;;;;;0.50;0.47;;;;;;;3.08;82.95;101921.03;4995742;28;20092;-84
2023/01/12 02:06:31;;;;;;;2.47;1.52;;;;;;;3.17;82.69;101924.47;4995684;28;20029;-84
2023/01/12 02:09:11;;;;;;;2.13;1.63;;;;;;;3.28;82.68;101941.53;4996064;28;20026;-83
2023/01/12 02:17:10;;;;;;;4.55;2.47;;;;;;;3.25;83.11;101939.84;4997973;28;20049;-84
2023/01/12 02:19:40;;;;;;;0.95;0.93;;;;;;;2.99;83.08;101898.00;5012637;28;20497;-84
2023/01/12 02:22:15;;;;;;;1.00;0.90;;;;;;;3.29;83.26;101935.56;4995443;28;20124;-84
2023/01/12 02:24:51;;;;;;;2.83;1.88;;;;;;;3.28;83.04;101936.41;5013046;28;20179;-84
2023/01/12 02:27:32;;;;;;;2.20;1.98;;;;;;;3.18;83.54;101927.88;5011536;28;20500;-83
2023/01/12 02:30:12;;;;;;;3.10;2.28;;;;;;;3.20;84.14;101925.31;5012887;28;20032;-83
2023/01/12 02:33:10;;;;;;;1.92;1.77;;;;;;;3.21;83.92;101927.03;5012572;28;20058;-84
2023/01/12 02:35:49;;;;;;;1.92;1.70;;;;;;;3.19;84.07;101923.63;5009305;28;20570;-83
2023/01/12 02:38:38;;;;;;;2.20;2.00;;;;;;;3.16;84.10;101929.59;5011523;28;20469;-84
2023/01/12 02:44:21;;;;;;;2.95;2.55;;;;;;;3.06;84.12;101912.50;5011441;28;20044;-84
2023/01/12 02:46:47;;;;;;;4.32;2.63;;;;;;;3.00;83.76;101886.91;4995704;28;20038;-84
2023/01/12 02:49:13;;;;;;;1.13;1.08;;;;;;;3.15;83.99;101904.88;4994730;28;20100;-85
2023/01/12 02:51:43;;;;;;;1.33;1.17;;;;;;;3.20;83.38;101913.38;4995221;28;20022;-84
2023/01/12 02:54:13;;;;;;;0.80;0.80;;;;;;;3.15;83.37;101913.38;5010683;28;20167;-83
2023/01/12 02:57:03;;;;;;;1.00;0.90;;;;;;;3.20;83.69;101920.19;4994777;28;20084;-84
2023/01/12 02:59:30;;;;;;;0.90;0.80;;;;;;;3.05;83.40;101904.00;5011073;28;20033;-83
2023/01/12 03:02:07;;;;;;;2.65;1.85;;;;;;;3.07;83.27;101909.94;4994846;28;20022;-83
2023/01/12 03:04:33;;;;;;;3.45;1.50;;;;;;;2.89;83.50;101876.66;4994947;28;20026;-84
2023/01/12 03:06:58;;;;;;;0.60;0.45;;;;;;;3.02;83.55;101909.06;4994587;28;20086;-84
2023/01/12 03:09:33;;;;;;;2.47;1.17;;;;;;;3.08;83.42;101908.25;5011846;28;20037;-83
2023/01/12 03:12:05;;;;;;;1.00;0.88;;;;;;;2.85;83.07;101872.38;4995323;28;20088;-83
2023/01/12 03:14:30;;;;;;;1.38;1.20;;;;;;;3.10;82.84;101909.94;4994513;28;20030;-84
2023/01/12 03:16:56;;;;;;;0.73;0.65;;;;;;;3.04;82.96;101904.81;4994486;28;20137;-83
2023/01/12 03:19:26;;;;;;;0.73;0.60;;;;;;;3.02;83.30;101916.75;4994418;28;20544;-84
2023/01/12 03:21:59;;;;;;;1.33;1.23;;;;;;;3.00;83.33;101923.56;4994726;28;20493;-83
2023/01/12 03:24:25;;;;;;;;;;;;;;;2.98;83.81;101924.41;5010938;28;20033;-84
2023/01/12 03:26:53;;;;;;;2.53;2.13;;;;;;;2.89;83.87;101917.56;5010650;28;20376;-83
2023/01/12 03:29:21;;;;;;;1.85;1.05;;;;;;;2.76;84.32;101913.28;4994194;28;20068;-83
2023/01/12 03:31:46;;;;;;;3.65;2.35;;;;;;;2.76;83.64;101903.03;5011418;28;20022;-84
2023/01/12 03:34:11;;;;;;;1.65;1.55;;;;;;;2.82;84.52;101918.38;5011661;28;20459;-84
2023/01/12 03:36:46;;;;;;;1.88;1.23;;;;;;;2.92;84.30;101920.13;4994075;28;20034;-83
2023/01/12 03:39:26;;;;;;;4.93;2.00;;;;;;;2.95;84.35;101916.72;5009994;28;20464;-83
2023/01/12 03:42:02;;;;;;;1.88;1.58;;;;;;;2.93;83.98;101911.59;4994378;28;20030;-83
2023/01/12 03:44:48;;;;;;;1.73;1.40;;;;;;;2.97;84.20;101922.72;5009835;28;20500;-83
2023/01/12 03:47:21;;;;;;;1.83;1.40;;;;;;;2.82;83.87;101887.72;4990372;28;20044;-84
2023/01/12 03:49:55;;;;;;;2.45;1.42;;;;;;;2.91;83.60;101909.91;4993639;28;20061;-84
2023/01/12 03:52:21;;;;;;;2.15;1.38;;;;;;;2.77;83.58;101894.53;4993771;28;20025;-85
2023/01/12 03:54:46;;;;;;;2.38;2.10;;;;;;;2.86;83.94;101905.63;4993789;28;20133;-85
2023/01/12 03:57:12;;;;;;;2.47;2.17;;;;;;;2.91;84.19;101907.34;5010111;28;20409;-85
2023/01/12 03:59:38;;;;;;;2.00;1.30;;;;;;;2.96;83.57;101910.78;5010102;28;20493;-84
2023/01/12 04:02:03;;;;;;;3.88;1.48;;;;;;;2.81;83.80;101891.97;5010382;28;20404;-85
2023/01/12 04:04:29;;;;;;;2.25;2.03;;;;;;;2.90;83.82;101906.50;4993775;28;20382;-85
2023/01/12 04:06:54;;;;;;;0.55;0.55;;;;;;;3.03;83.77;101909.94;5009715;28;20532;-85
2023/01/12 04:09:21;;;;;;;3.10;2.13;;;;;;;2.93;83.25;101891.16;4993916;28;20064;-85
2023/01/12 04:14:31;;;;;;;1.63;1.13;;;;;;;3.14;82.65;101891.19;5009920;28;20481;-86
2023/01/12 04:16:56;;;;;;;2.05;1.45;;;;;;;3.29;82.21;101904.88;5009831;28;20030;-86
2023/01/12 04:19:22;;;;;;;3.10;2.45;;;;;;;3.26;81.51;101890.38;4993417;28;20033;-86
2023/01/12 04:24:31;;;;;;;3.72;2.45;;;;;;;3.36;82.46;101886.13;5009705;28;20095;-86
2023/01/12 04:26:57;;;;;;;2.33;1.73;;;;;;;3.44;81.38;101910.88;5009767;28;20034;-86
2023/01/12 04:29:22;;;;;;;2.85;2.08;;;;;;;3.19;80.47;101867.34;5009623;28;20137;-86
2023/01/12 04:31:48;;;;;;;2.67;1.95;;;;;;;3.30;79.91;101879.28;5009397;28;20037;-85
2023/01/12 04:34:13;;;;;;;1.60;1.23;;;;;;;3.46;80.31;101908.31;4993244;28;20030;-85
2023/01/12 04:36:41;;;;;;;1.50;1.40;;;;;;;3.32;80.28;101900.59;4992970;28;20062;-86
2023/01/12 04:39:06;;;;;;;4.75;1.75;;;;;;;3.43;80.84;101905.72;5017445;28;20064;-86
2023/01/12 04:41:32;;;;;;;2.67;2.30;;;;;;;3.36;80.53;101907.44;5018440;28;20030;-86
2023/01/12 04:43:57;;;;;;;3.80;1.73;;;;;;;3.28;81.33;101892.94;5009430;28;20108;-85
2023/01/12 04:46:23;;;;;;;2.58;2.35;;;;;;;3.28;81.97;101909.13;5009356;28;20037;-85
2023/01/12 04:48:49;;;;;;;2.67;2.05;;;;;;;3.02;82.61;101868.16;5008937;28;20049;-87
2023/01/12 04:51:14;;;;;;;2.95;1.40;;;;;;;3.36;82.01;101902.34;5009043;28;20018;-86
2023/01/12 04:53:40;;;;;;;2.45;2.05;;;;;;;3.20;81.26;101899.75;4993019;28;20022;-85
2023/01/12 04:56:06;;;;;;;2.60;1.77;;;;;;;3.04;82.39;101879.25;5010691;28;20064;-86
2023/01/12 04:58:31;;;;;;;1.88;1.20;;;;;;;2.93;82.49;101870.69;4996934;28;20111;-86
2023/01/12 05:00:57;;;;;;;3.47;2.95;;;;;;;3.20;82.73;101910.81;5012878;28;20081;-85
2023/01/12 05:03:23;;;;;;;1.88;1.70;;;;;;;3.07;82.21;101907.41;5013079;28;20057;-85
2023/01/12 05:05:48;;;;;;;2.72;1.30;;;;;;;3.19;82.38;101933.84;5011613;28;20038;-85
2023/01/12 05:10:58;;;;;;;2.15;1.73;;;;;;;3.10;82.00;101902.28;5012697;28;20125;-85
2023/01/12 05:13:26;;;;;;;2.92;2.08;;;;;;;3.25;82.45;101923.63;5012667;28;20508;-86
2023/01/12 05:15:51;;;;;;;2.53;1.63;;;;;;;3.18;82.65;101922.75;5012533;28;20029;-94
2023/01/12 05:18:17;;;;;;;2.47;1.58;;;;;;;3.17;82.16;101926.16;4997683;28;20128;-85
2023/01/12 05:20:42;;;;;;;5.20;3.22;;;;;;;3.14;82.28;101910.81;4995476;28;20057;-92
2023/01/12 05:23:08;;;;;;;5.78;2.58;;;;;;;3.21;82.45;101943.22;4996764;28;20034;-91
2023/01/12 05:25:33;;;;;;;3.80;1.45;;;;;;;2.91;82.51;101882.63;4996846;28;20512;-84
2023/01/12 05:27:59;;;;;;;1.38;1.25;;;;;;;3.19;82.50;101934.69;5014854;28;20480;-94
2023/01/12 05:30:28;;;;;;;3.17;1.98;;;;;;;3.18;83.23;101933.00;4997163;28;20060;-90
2023/01/12 05:32:53;;;;;;;3.60;2.15;;;;;;;3.07;82.69;101922.75;4999714;28;20026;-93
2023/01/12 05:35:19;;;;;;;3.28;2.60;;;;;;;3.15;83.30;101933.00;5003244;28;20507;-95
2023/01/12 05:37:48;;;;;;;1.63;1.52;;;;;;;3.27;82.75;101947.50;5043024;28;20043;-95
2023/01/12 05:40:14;;;;;;;1.92;1.40;;;;;;;3.14;82.92;101938.94;5017051;28;20026;-87
2023/01/12 05:45:24;;;;;;;2.78;1.55;;;;;;;3.09;83.17;101923.59;5032842;28;20036;-88
2023/01/12 05:47:57;;;;;;;2.22;1.70;;;;;;;3.15;83.02;101938.09;5002132;28;20432;-88
2023/01/12 05:50:23;;;;;;;2.33;1.77;;;;;;;3.32;82.25;101943.25;4999890;28;20057;-88
2023/01/12 05:52:51;;;;;;;2.38;1.52;;;;;;;3.30;82.33;101957.72;5013745;28;20534;-90
2023/01/12 05:55:16;;;;;;;1.55;1.35;;;;;;;3.22;82.14;101938.94;5032304;28;20030;-90
2023/01/12 05:57:42;;;;;;;1.20;1.10;;;;;;;3.21;82.49;101942.38;5016543;28;20034;-90
2023/01/12 06:00:08;;;;;;;1.25;0.93;;;;;;;3.26;82.53;101950.91;5023905;28;20516;-89
2023/01/12 06:02:33;;;;;;;3.35;1.48;;;;;;;3.23;82.08;101946.63;5012330;28;20065;-88
2023/01/12 06:04:59;;;;;;;2.10;1.90;;;;;;;3.19;82.25;101942.38;5004643;28;20032;-90
2023/01/12 06:07:24;;;;;;;1.25;1.02;;;;;;;3.23;83.73;101953.44;5000274;28;20030;-91
2023/01/12 06:09:50;;;;;;;4.25;2.03;;;;;;;3.24;82.61;101945.78;5005034;28;20111;-94
2023/01/12 06:14:59;;;;;;;2.08;1.55;;;;;;;3.24;83.21;101957.72;5019512;28;20044;-92
2023/01/12 06:17:25;;;;;;;3.08;1.95;;;;;;;3.32;82.96;101961.13;5015635;28;20030;-94
2023/01/12 06:19:50;;;;;;;2.08;1.55;;;;;;;3.29;83.26;101966.25;5000545;28;20034;-92
2023/01/12 06:22:18;;;;;;;3.75;2.00;;;;;;;3.40;83.26;101972.25;5009353;28;20081;-87
2023/01/12 06:24:47;;;;;;;4.43;2.88;;;;;;;3.36;82.79;101957.75;5016295;28;20026;-90
2023/01/12 06:27:13;;;;;;;1.42;1.10;;;;;;;3.40;81.73;101970.53;5020968;28;20073;-94
2023/01/12 06:29:39;;;;;;;6.22;1.55;;;;;;;3.44;82.49;101977.38;5002342;28;20029;-87
2023/01/12 06:32:04;;;;;;;2.97;1.73;;;;;;;3.43;82.57;101964.56;5021091;28;20400;-87
2023/01/12 06:34:34;;;;;;;4.82;3.38;;;;;;;3.41;83.04;101961.16;5016747;28;20041;-94
2023/01/12 06:37:03;;;;;;;13.73;7.15;;;;;;;3.50;82.09;101971.41;5013337;28;20177;-88
2023/01/12 06:39:29;;;;;;;8.05;3.58;;;;;;;3.52;81.68;101972.25;5024667;28;20074;-95
2023/01/12 06:44:44;;;;;;;4.75;2.75;;;;;;;3.35;82.08;101956.06;5015506;28;20040;-93
2023/01/12 06:47:09;;;;;;;3.33;2.25;;;;;;;3.49;81.89;101979.94;5013021;28;20055;-92
2023/01/12 06:49:35;;;;;;;1.40;1.25;;;;;;;3.43;81.38;101969.69;5002322;28;20049;-91
2023/01/12 06:52:00;;;;;;;1.42;0.95;;;;;;;3.51;80.39;101972.28;5004598;28;20061;-86
2023/01/12 06:54:26;;;;;;;2.97;1.75;;;;;;;3.57;80.92;101978.25;5018795;28;20033;-90
2023/01/12 06:56:53;;;;;;;3.83;2.42;;;;;;;3.53;80.90;101971.41;5022400;28;20091;-85
2023/01/12 06:59:19;;;;;;;1.75;1.35;;;;;;;3.39;80.83;101942.41;5022959;28;20108;-85
2023/01/12 07:01:44;;;;;;;3.53;2.55;;;;;;;3.53;81.15;101961.19;5023085;28;20377;-93
2023/01/12 07:04:10;;;;;;;5.30;3.35;;;;;;;3.63;82.00;101980.81;5017762;28;20524;-92
2023/01/12 07:06:35;;;;;;;1.52;1.33;;;;;;;3.64;81.37;101979.13;5002039;28;20568;-91
2023/01/12 07:09:01;;;;;;;5.88;3.10;;;;;;;3.51;80.37;101956.91;5016059;28;20084;-93
2023/01/12 07:11:27;;;;;;;1.83;0.98;;;;;;;3.67;80.23;101984.25;5019018;28;20056;-94
2023/01/12 07:13:53;;;;;;;2.78;1.90;;;;;;;3.52;80.27;101969.72;4996206;28;20481;-87
2023/01/12 07:16:19;;;;;;;2.55;1.40;;;;;;;3.55;81.22;101969.72;4998089;28;20554;-91
2023/01/12 07:18:45;;;;;;;1.25;1.15;;;;;;;3.59;81.52;101981.66;4990005;28;20136;-94
2023/01/12 07:21:15;;;;;;;4.25;3.15;;;;;;;3.61;81.86;101979.09;5015965;28;20025;-93
2023/01/12 07:23:42;;;;;;;3.10;1.73;;;;;;;3.65;82.16;101979.13;4994769;28;20091;-94
2023/01/12 07:26:09;;;;;;;1.83;1.45;;;;;;;3.72;81.33;101985.09;5002001;28;20574;-89
2023/01/12 07:28:35;;;;;;;2.78;2.28;;;;;;;3.76;80.96;101981.69;5012997;28;20036;-91
2023/01/12 07:31:01;;;;;;;3.08;1.52;;;;;;;3.80;80.86;101979.97;5008246;28;20046;-95
2023/01/12 07:33:26;;;;;;;1.35;0.93;;;;;;;3.63;81.18;101947.53;4998551;28;20017;-87
2023/01/12 07:35:53;;;;;;;1.73;1.63;;;;;;;3.68;80.27;101961.22;5013976;28;20029;-94
2023/01/12 07:38:18;;;;;;;2.35;1.80;;;;;;;3.82;80.15;101966.31;5003706;28;20034;-88
2023/01/12 07:40:44;;;;;;;2.80;1.85;;;;;;;3.72;79.16;101959.50;4993417;28;20029;-94
2023/01/12 07:43:10;;;;;;;2.17;1.42;;;;;;;3.73;79.45;101962.03;5009089;28;20481;-87
2023/01/12 07:45:36;;;;;;;5.00;1.92;;;;;;;3.82;80.60;101970.59;4993962;28;20052;-89
2023/01/12 07:48:01;;;;;;;2.63;1.55;;;;;;;3.79;81.20;101953.53;4979330;28;20512;-87
2023/01/12 07:50:27;;;;;;;3.10;2.20;;;;;;;3.77;80.71;101970.59;5006549;28;20536;-92
2023/01/12 07:52:53;;;;;;;2.55;2.30;;;;;;;3.67;80.14;101939.03;5031266;28;20088;-88
2023/01/12 07:55:18;;;;;;;3.42;1.92;;;;;;;3.55;80.17;101912.59;5013658;28;20048;-90
2023/01/12 07:58:01;;;;;;;6.82;1.73;;;;;;;3.90;81.40;101974.00;5033758;28;20018;-85
2023/01/12 08:00:30;;;;;;;2.08;1.48;;;;;;;3.88;80.46;101960.38;5006918;28;20423;-94
2023/01/12 08:03:06;;;;;;;6.72;3.30;;;;;;;3.84;79.97;101974.03;5012189;28;20099;-90
2023/01/12 08:05:32;;;;;;;3.20;1.92;;;;;;;4.00;80.61;101996.19;4978650;28;20053;-92
2023/01/12 08:07:57;;;;;;;1.63;1.35;;;;;;;4.01;80.08;101991.06;5000155;28;20037;-91
2023/01/12 08:10:23;;;;;;;3.20;1.83;;;;;;;3.75;79.18;101954.41;5007482;28;20025;-86
2023/01/12 08:12:52;;;;;;;4.15;3.05;;;;;;;3.99;79.84;101984.25;5025198;28;20034;-93
2023/01/12 08:15:17;;;;;;;1.20;1.10;;;;;;;3.97;79.99;101983.41;5012883;28;20040;-88
2023/01/12 08:17:48;;;;;;;1.17;1.10;;;;;;;4.04;84.06;101972.31;5007724;28;20054;-88
2023/01/12 08:20:30;;;;;;;2.17;1.67;;;;;;;4.12;80.50;101997.91;4986208;28;20108;-85
2023/01/12 08:22:57;;;;;;;3.03;1.40;;;;;;;4.09;80.51;101987.66;5007434;28;20057;-92
2023/01/12 08:25:27;;;;;;;2.13;1.35;;;;;;;4.20;81.88;101993.63;5000931;28;20504;-91
2023/01/12 08:27:54;;;;;;;2.47;2.05;;;;;;;4.21;80.16;101987.66;4997165;28;20075;-86
2023/01/12 08:30:21;;;;;;;1.65;1.30;;;;;;;4.08;80.45;101958.63;5001313;28;20038;-88
2023/01/12 08:32:46;;;;;;;3.75;1.40;;;;;;;4.25;79.04;101982.53;5006264;28;20037;-87
2023/01/12 08:35:14;;;;;;;4.43;2.40;;;;;;;4.22;78.98;101979.09;5022256;28;20040;-93
2023/01/12 08:37:39;;;;;;;2.78;1.35;;;;;;;4.25;79.38;101974.84;5019022;28;20029;-92
2023/01/12 08:40:05;;;;;;;2.58;1.25;;;;;;;4.30;78.76;101972.28;4986373;28;20087;-91
2023/01/12 08:42:31;;;;;;;1.75;1.27;;;;;;;4.20;79.54;101981.66;5003363;28;20058;-92
2023/01/12 08:44:56;;;;;;;1.42;1.33;;;;;;;4.37;79.44;101991.06;5014513;28;20503;-86
2023/01/12 08:47:26;;;;;;;0.80;0.80;;;;;;;4.29;78.60;101981.66;5005909;28;20033;-93
2023/01/12 08:49:52;;;;;;;3.08;1.75;;;;;;;4.37;79.34;101993.63;4984757;28;20077;-90
2023/01/12 08:52:17;;;;;;;2.47;1.85;;;;;;;4.41;79.77;101980.78;5004473;28;20037;-84
2023/01/12 08:54:43;;;;;;;2.70;2.50;;;;;;;4.48;78.89;101997.88;5014637;28;20022;-90
2023/01/12 08:57:08;;;;;;;2.13;1.48;;;;;;;4.43;78.41;101996.19;5019150;28;20500;-96
2023/01/12 08:59:34;;;;;;;2.90;2.53;;;;;;;4.29;78.48;101996.19;4993807;28;20035;-92
2023/01/12 09:02:00;;;;;;;1.90;1.15;;;;;;;4.29;78.30;101991.91;4996205;28;20026;-95
2023/01/12 09:04:26;;;;;;;1.08;0.88;;;;;;;4.40;79.30;102004.72;5017110;28;20087;-92
2023/01/12 09:06:51;;;;;;;0.85;0.77;;;;;;;4.53;79.98;102001.28;5011923;28;20416;-92
2023/01/12 09:09:18;;;;;;;2.10;1.92;;;;;;;4.48;79.54;101984.19;5021013;28;20054;-92
2023/01/12 09:11:44;;;;;;;2.25;1.52;;;;;;;4.53;79.11;101985.91;5003510;28;20088;-90
2023/01/12 09:14:13;;;;;;;2.38;1.60;;;;;;;4.58;79.71;101985.88;4988282;28;20037;-93
2023/01/12 09:16:39;;;;;;;2.40;1.90;;;;;;;4.73;78.04;101988.41;5031764;28;20217;-94
2023/01/12 09:19:05;;;;;;;1.40;1.25;;;;;;;4.64;83.23;101959.41;5014174;28;20563;-87
2023/01/12 09:21:30;;;;;;;4.07;2.28;;;;;;;4.75;80.35;101960.22;5003459;28;20026;-84
2023/01/12 09:23:56;;;;;;;1.63;1.52;;;;;;;4.84;77.66;101971.28;5007579;28;20030;-85
2023/01/12 09:26:22;;;;;;;1.05;0.95;;;;;;;4.95;77.95;101988.34;4999322;28;20044;-86
2023/01/12 09:28:48;;;;;;;3.05;1.23;;;;;;;4.84;77.90;101961.03;5016587;28;20030;-90
2023/01/12 09:31:15;;;;;;;2.78;1.77;;;;;;;5.04;77.77;101988.31;4994236;28;20077;-92
2023/01/12 09:33:44;;;;;;;1.48;1.10;;;;;;;4.93;76.39;101974.69;4993205;28;20080;-95
2023/01/12 09:36:17;;;;;;;1.38;1.25;;;;;;;5.07;77.67;101983.16;4993763;28;20026;-94
2023/01/12 09:38:43;;;;;;;7.38;2.53;;;;;;;5.09;76.93;101971.16;5000539;28;20055;-87
2023/01/12 09:47:35;;;;;;;3.05;2.55;;;;;;;5.04;76.14;101978.03;5023904;28;20060;-92
2023/01/12 09:50:22;;;;;;;7.50;5.03;;;;;;;5.01;77.39;101983.16;5013323;28;20496;-93
2023/01/12 09:52:54;;;;;;;5.40;2.70;;;;;;;4.92;77.36;101970.38;5020973;28;20041;-90
2023/01/12 09:55:22;;;;;;;3.72;2.33;;;;;;;5.04;77.20;101988.31;5043227;28;20029;-90
2023/01/12 09:57:53;;;;;;;4.68;2.72;;;;;;;5.04;77.46;101980.59;5009167;28;20080;-89
2023/01/12 10:00:23;;;;;;;2.60;1.73;;;;;;;4.98;78.42;101958.38;5029422;28;20033;-96
2023/01/12 10:02:53;;;;;;;3.08;2.42;;;;;;;5.19;78.94;101983.09;5001431;28;20026;-95
2023/01/12 10:05:32;;;;;;;3.63;2.25;;;;;;;5.12;76.88;101982.28;5002198;28;20134;-90
2023/01/12 10:07:58;;;;;;;3.88;2.63;;;;;;;4.99;77.99;101960.09;5003523;28;20033;-89
2023/01/12 10:10:23;;;;;;;3.35;1.52;;;;;;;4.96;76.58;101964.41;4995971;28;20113;-91
2023/01/12 10:12:52;;;;;;;3.70;2.47;;;;;;;5.01;77.09;101967.78;5003207;28;20063;-88
2023/01/12 10:15:44;;;;;;;10.77;2.67;;;;;;;5.13;77.58;101978.00;5011294;28;20172;-94
2023/01/12 10:18:18;;;;;;;2.65;1.65;;;;;;;5.14;77.75;101974.56;5006971;28;20045;-86
2023/01/12 10:20:44;;;;;;;4.57;2.28;;;;;;;5.09;78.10;101966.88;4996252;28;20202;-85
2023/01/12 10:23:18;;;;;;;2.20;1.88;;;;;;;5.12;77.47;101977.16;5013928;28;20029;-85
2023/01/12 10:26:01;;;;;;;3.60;2.13;;;;;;;4.89;77.72;101928.50;5012767;28;20048;-93
2023/01/12 10:28:32;;;;;;;3.55;2.28;;;;;;;5.10;76.84;101967.72;4996557;28;20120;-88
2023/01/12 10:30:57;;;;;;;3.88;2.42;;;;;;;5.08;77.75;101959.19;5000120;28;20515;-87
2023/01/12 10:33:28;;;;;;;4.50;2.63;;;;;;;5.06;76.84;101960.94;5002974;28;20021;-85
2023/01/12 10:36:08;;;;;;;4.75;2.22;;;;;;;5.01;77.42;101955.81;5000730;28;20113;-88
2023/01/12 10:38:37;;;;;;;3.45;2.78;;;;;;;5.11;78.40;101964.31;5024541;28;20513;-92
2023/01/12 10:41:16;;;;;;;3.58;2.63;;;;;;;5.06;77.57;101955.78;4999981;28;20029;-85
2023/01/12 10:43:43;;;;;;;23.73;14.13;;;;;;;4.95;77.96;101939.63;5010768;28;20027;-92
2023/01/12 10:46:11;;;;;;;10.35;6.00;;;;;;;5.05;78.61;101956.66;5024286;28;20033;-91
2023/01/12 10:48:38;;;;;;;6.25;4.30;;;;;;;5.04;79.05;101952.41;4983917;28;20145;-92
2023/01/12 10:51:23;;;;;;;9.30;4.80;;;;;;;5.05;79.00;101946.41;4994291;28;20026;-91
2023/01/12 10:54:07;;;;;;;6.20;4.45;;;;;;;5.05;78.99;101944.69;5006562;28;20037;-90
2023/01/12 10:56:53;;;;;;;9.32;4.18;;;;;;;5.07;78.62;101942.09;5011926;28;20120;-89
2023/01/12 10:59:20;;;;;;;5.25;3.92;;;;;;;4.99;78.03;101920.78;4996122;28;20033;-87
2023/01/12 11:01:49;;;;;;;5.57;3.13;;;;;;;4.91;78.18;101920.81;5016356;28;20022;-91
2023/01/12 11:04:27;;;;;;;8.88;3.45;;;;;;;4.93;79.28;101925.94;5004738;28;20033;-96
2023/01/12 11:07:00;;;;;;;4.25;3.63;;;;;;;4.98;80.33;101932.75;5013889;28;20116;-87
2023/01/12 11:09:27;;;;;;;5.95;4.63;;;;;;;5.01;80.26;101937.00;5013206;28;20033;-85
2023/01/12 11:11:57;;;;;;;4.63;2.20;;;;;;;4.86;80.35;101909.72;5012979;28;20148;-86
2023/01/12 11:14:26;;;;;;;6.28;4.10;;;;;;;4.89;79.68;101920.81;5026416;28;20037;-89
2023/01/12 11:16:52;;;;;;;8.38;4.13;;;;;;;4.97;78.57;101914.81;5012856;28;20038;-92
2023/01/12 11:19:29;;;;;;;4.45;3.50;;;;;;;5.00;79.08;101914.78;5002329;28;20038;-94
2023/01/12 11:22:26;;;;;;;5.97;4.43;;;;;;;5.05;79.75;101918.19;5016119;28;20589;-94
2023/01/12 11:25:11;;;;;;;3.40;2.78;;;;;;;5.04;79.71;101895.97;5015367;28;20063;-92
2023/01/12 11:27:39;;;;;;;4.80;3.72;;;;;;;5.14;79.61;101913.00;5002387;28;20120;-89
2023/01/12 11:30:09;;;;;;;6.97;5.40;;;;;;;5.27;79.49;101918.91;5010740;28;20038;-93
2023/01/12 11:32:52;;;;;;;4.63;4.05;;;;;;;5.25;78.96;101902.69;5020368;28;20026;-84
2023/01/12 11:35:36;;;;;;;10.60;4.82;;;;;;;5.33;78.76;101922.28;4994415;28;20061;-84
2023/01/12 11:38:07;;;;;;;8.20;5.63;;;;;;;5.29;79.56;101904.34;5020064;28;20034;-91
2023/01/12 11:40:36;;;;;;;13.05;8.40;;;;;;;5.36;79.66;101914.56;5027886;28;20040;-87
2023/01/12 11:46:25;;;;;;;12.82;5.82;;;;;;;5.54;79.63;101917.88;5013961;28;20129;-92
2023/01/12 11:49:15;;;;;;;11.20;6.57;;;;;;;5.58;79.37;101919.53;4979161;28;20064;-90
2023/01/12 11:51:41;;;;;;;10.20;6.00;;;;;;;5.65;81.38;101892.97;5046431;28;20087;-89
2023/01/12 11:54:08;;;;;;;14.18;7.13;;;;;;;5.92;81.98;101909.88;5012799;28;20029;-88
2023/01/12 11:56:41;;;;;;;8.85;7.22;;;;;;;6.03;79.87;101883.22;5030714;28;20038;-92
2023/01/12 11:59:27;;;;;;;12.18;7.55;;;;;;;6.51;79.65;101913.56;5005253;28;20030;-93
2023/01/12 12:02:15;;;;;;;15.60;9.93;;;;;;;6.41;76.27;101876.81;5011229;28;20041;-87
2023/01/12 12:05:09;;;;;;;10.18;5.43;;;;;;;6.18;76.54;101851.34;5002323;28;20543;-91
2023/01/12 12:08:02;;;;;;;46.28;29.73;;;;;;;6.42;75.90;101911.94;5008484;28;20026;-89
2023/01/12 12:10:31;;;;;;;33.15;12.35;;;;;;;6.20;75.10;101916.47;5009414;28;20026;-90
2023/01/12 12:13:16;;;;;;;8.45;6.25;;;;;;;5.99;76.61;101917.50;5010781;28;20028;-92
2023/01/12 12:15:51;;;;;;;86.65;48.63;;;;;;;5.87;77.35;101909.03;4978499;28;20088;-93
2023/01/12 12:18:33;;;;;;;16.92;10.23;;;;;;;5.86;77.50;101926.16;5022452;28;20389;-91
2023/01/12 12:21:20;;;;;;;15.70;4.25;;;;;;;5.74;77.58;101921.13;5028127;28;20407;-89
2023/01/12 12:23:54;;;;;;;13.32;7.00;;;;;;;5.73;78.13;101919.44;5008929;28;20029;-88